Time;durP1;ratioP1;P1;durP2;ratioP2;P2;SDS_P1;SDS_P2;PMS_P1;PMS_P2;Temp;Humidity;BMP_temperature;BMP_pressure;BME280_temperature;BME280_humidity;BME280_pressure;Samples;Min_cycle;Max_cycle;Signal;HPM_P1;HPM_P2
2022/08/07 00:00:44;;;;;;;8.77;3.75;;;10.50;99.90;;;;;;5005631;28;20038;-85
2022/08/07 00:03:10;;;;;;;10.65;3.75;;;10.50;99.90;;;;;;5012927;28;20036;-85
2022/08/07 00:05:36;;;;;;;8.68;4.03;;;10.60;99.90;;;;;;5023106;28;20069;-85
2022/08/07 00:08:04;;;;;;;7.88;3.90;;;10.60;99.90;;;;;;5013267;28;20109;-85
2022/08/07 00:10:29;;;;;;;9.65;3.90;;;10.60;99.90;;;;;;5020065;28;20555;-86
2022/08/07 00:12:56;;;;;;;10.68;3.97;;;10.50;99.90;;;;;;5014086;28;20025;-85
2022/08/07 00:15:24;;;;;;;11.95;5.18;;;10.40;99.90;;;;;;5021172;28;20440;-85
2022/08/07 00:17:50;;;;;;;9.38;3.75;;;10.30;99.90;;;;;;5007084;28;20028;-85
2022/08/07 00:20:15;;;;;;;7.68;3.72;;;10.10;99.90;;;;;;5012534;28;20026;-85
2022/08/07 00:22:41;;;;;;;9.57;4.75;;;10.30;99.90;;;;;;5007012;28;20031;-85
2022/08/07 00:25:07;;;;;;;10.20;3.92;;;10.30;99.90;;;;;;5001404;28;20085;-85
2022/08/07 00:27:34;;;;;;;8.52;4.00;;;10.30;99.90;;;;;;5004679;28;20477;-85
2022/08/07 00:30:00;;;;;;;9.90;3.97;;;10.20;99.90;;;;;;5009334;28;20056;-85
2022/08/07 00:32:26;;;;;;;9.23;3.97;;;10.10;99.90;;;;;;5011311;28;20060;-85
2022/08/07 00:34:52;;;;;;;9.68;3.75;;;10.00;99.90;;;;;;5007879;28;20390;-85
2022/08/07 00:37:18;;;;;;;12.63;4.25;;;9.90;99.90;;;;;;5016928;28;20026;-85
2022/08/07 00:39:44;;;;;;;10.48;3.95;;;9.90;99.90;;;;;;5005997;28;20595;-85
2022/08/07 00:42:10;;;;;;;9.18;4.10;;;10.00;99.90;;;;;;5009201;28;20046;-85
2022/08/07 00:44:36;;;;;;;8.82;4.30;;;10.00;99.90;;;;;;5005131;28;20525;-85
2022/08/07 00:47:04;;;;;;;9.82;4.15;;;10.00;99.90;;;;;;5009488;28;20109;-85
2022/08/07 00:49:29;;;;;;;10.85;4.40;;;9.90;99.90;;;;;;5007675;28;20030;-85
2022/08/07 00:51:55;;;;;;;10.88;4.50;;;9.80;99.90;;;;;;5007635;28;20109;-85
2022/08/07 00:54:21;;;;;;;11.82;4.85;;;9.70;99.90;;;;;;5019386;28;20112;-85
2022/08/07 00:56:48;;;;;;;10.02;4.57;;;9.70;99.90;;;;;;5008331;28;20705;-85
2022/08/07 00:59:14;;;;;;;10.18;4.65;;;9.70;99.90;;;;;;5011165;28;20052;-85
2022/08/07 01:01:40;;;;;;;13.07;4.32;;;9.80;99.90;;;;;;5026161;28;20455;-85
2022/08/07 01:04:07;;;;;;;9.82;4.43;;;9.80;99.90;;;;;;5007741;28;20050;-85
2022/08/07 01:06:33;;;;;;;11.82;4.47;;;9.80;99.90;;;;;;5001048;28;20014;-85
2022/08/07 01:09:00;;;;;;;8.48;4.47;;;9.70;99.90;;;;;;5003137;28;20022;-85
2022/08/07 01:11:27;;;;;;;10.30;4.07;;;9.60;99.90;;;;;;5017150;28;20032;-85
2022/08/07 01:13:52;;;;;;;10.00;4.45;;;9.50;99.90;;;;;;5014365;28;20116;-85
2022/08/07 01:16:18;;;;;;;11.85;4.05;;;9.50;99.90;;;;;;4993592;28;20077;-85
2022/08/07 01:18:44;;;;;;;10.82;4.88;;;9.60;99.90;;;;;;5004236;28;20038;-85
2022/08/07 01:21:10;;;;;;;11.18;4.47;;;9.60;99.90;;;;;;5006880;28;20034;-85
2022/08/07 01:23:37;;;;;;;11.60;4.50;;;9.60;99.90;;;;;;5015310;28;20029;-85
2022/08/07 01:26:04;;;;;;;10.25;4.65;;;9.60;99.90;;;;;;5005723;28;20097;-85
2022/08/07 01:28:30;;;;;;;9.05;4.53;;;9.60;99.90;;;;;;5012886;28;20041;-85
2022/08/07 01:30:56;;;;;;;11.70;4.78;;;9.50;99.90;;;;;;5008610;28;20435;-85
2022/08/07 01:33:23;;;;;;;10.18;5.00;;;9.40;99.90;;;;;;5012377;28;20100;-85
2022/08/07 01:35:49;;;;;;;10.65;4.82;;;9.30;99.90;;;;;;5018537;28;20131;-85
2022/08/07 01:38:16;;;;;;;13.05;4.97;;;9.30;99.90;;;;;;5024124;28;20025;-86
2022/08/07 01:40:42;;;;;;;11.73;5.03;;;9.30;99.90;;;;;;5015163;28;20152;-85
2022/08/07 01:43:08;;;;;;;10.48;4.50;;;9.40;99.90;;;;;;5010545;28;20030;-85
2022/08/07 01:45:34;;;;;;;10.38;5.00;;;9.30;99.90;;;;;;5014589;28;20411;-85
2022/08/07 01:48:00;;;;;;;10.65;4.78;;;9.30;99.90;;;;;;5004517;28;20098;-85
2022/08/07 01:50:26;;;;;;;11.90;4.60;;;9.20;99.90;;;;;;5005664;28;20053;-85
2022/08/07 01:52:55;;;;;;;11.98;5.20;;;9.40;99.90;;;;;;5006804;28;20444;-85
2022/08/07 01:55:26;;;;;;;8.90;4.80;;;9.30;99.90;;;;;;5004466;28;20149;-85
2022/08/07 01:57:56;;;;;;;10.32;5.15;;;9.20;99.90;;;;;;5014533;28;20026;-85
2022/08/07 02:00:26;;;;;;;9.18;4.68;;;9.20;99.90;;;;;;4997043;28;20061;-85
2022/08/07 02:02:56;;;;;;;11.45;5.00;;;9.20;99.90;;;;;;5012832;28;20038;-85
2022/08/07 02:05:31;;;;;;;10.27;5.03;;;9.20;99.90;;;;;;5013424;28;20036;-85
2022/08/07 02:08:01;;;;;;;10.07;4.50;;;9.10;99.90;;;;;;5004498;28;20026;-85
2022/08/07 02:10:28;;;;;;;10.65;4.63;;;9.00;99.90;;;;;;5004605;28;20076;-85
2022/08/07 02:12:57;;;;;;;9.20;4.95;;;9.00;99.90;;;;;;5011318;28;20405;-85
2022/08/07 02:15:25;;;;;;;10.65;4.95;;;9.00;99.90;;;;;;5009609;28;20108;-85
2022/08/07 02:17:53;;;;;;;11.20;5.60;;;9.00;99.90;;;;;;5001823;28;20034;-85
2022/08/07 02:20:21;;;;;;;12.07;5.18;;;9.00;99.90;;;;;;4999731;28;20034;-85
2022/08/07 02:22:48;;;;;;;9.93;5.07;;;9.00;99.90;;;;;;5015050;28;20030;-85
2022/08/07 02:25:17;;;;;;;11.90;5.30;;;8.90;99.90;;;;;;5012932;28;20626;-85
2022/08/07 02:27:44;;;;;;;9.77;4.88;;;9.00;99.90;;;;;;5017489;28;20441;-85
2022/08/07 02:30:11;;;;;;;8.98;4.68;;;9.00;99.90;;;;;;5002979;28;20478;-85
2022/08/07 02:32:37;;;;;;;9.77;5.00;;;9.10;99.90;;;;;;5012271;28;20026;-85
2022/08/07 02:35:05;;;;;;;12.93;5.15;;;9.10;99.90;;;;;;5017518;28;20114;-85
2022/08/07 02:37:33;;;;;;;9.52;4.72;;;9.00;99.90;;;;;;5009413;28;20030;-85
2022/08/07 02:40:00;;;;;;;9.25;4.88;;;8.90;99.90;;;;;;5014932;28;20044;-85
2022/08/07 02:42:27;;;;;;;9.48;4.97;;;8.90;99.90;;;;;;5014203;28;20057;-85
2022/08/07 02:44:55;;;;;;;9.43;4.55;;;8.80;99.90;;;;;;5006147;28;20037;-85
2022/08/07 02:47:21;;;;;;;10.20;4.95;;;8.80;99.90;;;;;;5015646;28;20017;-85
2022/08/07 02:49:47;;;;;;;13.52;5.05;;;8.80;99.90;;;;;;5011228;28;20025;-85
2022/08/07 02:52:19;;;;;;;9.50;4.63;;;8.80;99.90;;;;;;5004330;28;20026;-85
2022/08/07 02:54:46;;;;;;;10.60;4.70;;;8.70;99.90;;;;;;5031469;28;20112;-85
2022/08/07 02:57:14;;;;;;;8.98;4.45;;;8.80;99.90;;;;;;5021885;28;20028;-85
2022/08/07 02:59:47;;;;;;;12.27;5.13;;;8.90;99.90;;;;;;5004106;28;20026;-85
2022/08/07 03:02:13;;;;;;;9.52;5.00;;;9.00;99.90;;;;;;5015368;28;20037;-85
2022/08/07 03:04:41;;;;;;;10.18;4.88;;;9.00;99.90;;;;;;5004003;28;20085;-85
2022/08/07 03:07:08;;;;;;;11.98;5.70;;;8.90;99.90;;;;;;5013223;28;20537;-85
2022/08/07 03:09:34;;;;;;;12.05;5.50;;;9.00;99.90;;;;;;5007352;28;20026;-85
2022/08/07 03:12:04;;;;;;;11.00;5.63;;;9.00;99.90;;;;;;5009364;28;20026;-85
2022/08/07 03:14:34;;;;;;;12.80;6.35;;;9.00;99.90;;;;;;5005381;28;20069;-85
2022/08/07 03:17:01;;;;;;;;;;;9.00;99.90;;;;;;5014186;28;20030;-85
2022/08/07 03:19:27;;;;;;;14.73;6.65;;;9.00;99.90;;;;;;5008716;28;19906;-85
2022/08/07 03:21:53;;;;;;;11.10;5.90;;;9.20;99.90;;;;;;5004201;28;20026;-85
2022/08/07 03:24:19;;;;;;;12.13;6.35;;;9.20;99.90;;;;;;5012690;28;20081;-85
2022/08/07 03:26:49;;;;;;;13.75;6.80;;;9.30;99.90;;;;;;5004367;28;20022;-85
2022/08/07 03:29:15;;;;;;;14.68;6.38;;;9.30;99.90;;;;;;5041804;28;20025;-85
2022/08/07 03:31:42;;;;;;;13.05;6.20;;;9.40;99.90;;;;;;5031370;28;20452;-85
2022/08/07 03:34:10;;;;;;;11.20;5.60;;;9.40;99.90;;;;;;5013963;28;20029;-85
2022/08/07 03:36:37;;;;;;;11.43;6.28;;;9.40;99.90;;;;;;5014406;28;20088;-85
2022/08/07 03:39:07;;;;;;;11.63;6.07;;;9.40;99.90;;;;;;5012255;28;20068;-85
2022/08/07 03:41:34;;;;;;;10.43;5.53;;;9.50;99.90;;;;;;5009282;28;20061;-85
2022/08/07 03:44:00;;;;;;;10.68;5.35;;;9.60;99.90;;;;;;5004793;28;20038;-85
2022/08/07 03:46:27;;;;;;;11.18;5.35;;;9.60;99.90;;;;;;5012869;28;20027;-85
2022/08/07 03:48:53;;;;;;;10.32;5.20;;;9.60;99.90;;;;;;5009539;28;20026;-85
2022/08/07 03:51:20;;;;;;;9.80;5.13;;;9.60;99.90;;;;;;5010994;28;20080;-85
2022/08/07 03:53:46;;;;;;;9.70;5.32;;;9.60;99.90;;;;;;5003630;28;20022;-85
2022/08/07 03:56:19;;;;;;;10.02;5.00;;;9.60;99.90;;;;;;5025237;28;20054;-85
2022/08/07 03:58:45;;;;;;;10.93;4.90;;;9.60;99.90;;;;;;5017239;28;20033;-85
2022/08/07 04:01:13;;;;;;;10.18;4.55;;;9.60;99.90;;;;;;5004066;28;20025;-85
2022/08/07 04:03:39;;;;;;;14.60;5.32;;;9.60;99.90;;;;;;5012688;28;20125;-85
2022/08/07 04:06:09;;;;;;;11.27;5.15;;;9.60;99.90;;;;;;5010550;28;20034;-85
2022/08/07 04:08:38;;;;;;;9.15;4.85;;;9.60;99.90;;;;;;5020412;28;20029;-85
2022/08/07 04:11:04;;;;;;;10.10;5.03;;;9.60;99.90;;;;;;5002182;28;20446;-85
2022/08/07 04:13:31;;;;;;;15.00;5.22;;;9.70;99.90;;;;;;5004554;28;20042;-85
2022/08/07 04:15:57;;;;;;;9.45;4.78;;;9.80;99.90;;;;;;5016504;28;20021;-85
2022/08/07 04:18:23;;;;;;;8.32;4.03;;;9.90;99.90;;;;;;5014924;28;20068;-85
2022/08/07 04:20:49;;;;;;;9.10;4.55;;;10.00;99.90;;;;;;5023883;28;20029;-85
2022/08/07 04:23:15;;;;;;;9.77;4.55;;;10.00;99.90;;;;;;5022245;28;20027;-85
2022/08/07 04:25:42;;;;;;;12.23;4.63;;;10.20;99.90;;;;;;5005854;28;20023;-85
2022/08/07 04:28:11;;;;;;;9.82;4.95;;;10.20;99.90;;;;;;5012630;28;20577;-85
2022/08/07 04:30:38;;;;;;;10.55;4.20;;;10.30;99.90;;;;;;5003815;28;20574;-85
2022/08/07 04:33:08;;;;;;;10.13;4.60;;;10.40;99.90;;;;;;5006714;28;20065;-85
2022/08/07 04:35:36;;;;;;;8.45;4.30;;;10.40;99.90;;;;;;5027339;28;20026;-85
2022/08/07 04:38:09;;;;;;;9.07;4.28;;;10.40;99.90;;;;;;5001907;28;20027;-85
2022/08/07 04:40:39;;;;;;;11.90;4.45;;;10.30;99.90;;;;;;5001257;28;20027;-85
2022/08/07 04:43:05;;;;;;;10.07;4.40;;;10.10;99.90;;;;;;5014643;28;20042;-85
2022/08/07 04:46:09;;;;;;;12.02;5.45;;;10.00;99.90;;;;;;5000275;28;20132;-85
2022/08/07 04:48:37;;;;;;;10.88;4.68;;;9.90;99.90;;;;;;5020458;28;20022;-85
2022/08/07 04:51:26;;;;;;;9.45;5.28;;;9.80;99.90;;;;;;5005499;28;20112;-85
2022/08/07 04:54:14;;;;;;;9.45;4.63;;;9.90;99.90;;;;;;5003064;28;20049;-85
2022/08/07 04:56:46;;;;;;;10.00;5.07;;;9.90;99.90;;;;;;4998642;28;20486;-85
2022/08/07 04:59:20;;;;;;;11.75;5.28;;;9.90;99.90;;;;;;5015173;28;20028;-85
2022/08/07 05:01:56;;;;;;;9.90;4.93;;;9.90;99.90;;;;;;5015289;28;20018;-85
2022/08/07 05:04:30;;;;;;;10.65;5.53;;;9.90;99.90;;;;;;5003289;28;20057;-85
2022/08/07 05:07:30;;;;;;;12.85;5.53;;;10.00;99.90;;;;;;5020190;28;20021;-85
2022/08/07 05:10:02;;;;;;;10.27;5.32;;;10.10;99.90;;;;;;5014914;28;20066;-85
2022/08/07 05:12:40;;;;;;;12.13;5.20;;;10.30;99.90;;;;;;5004696;28;20406;-85
2022/08/07 05:15:16;;;;;;;9.82;5.13;;;10.40;99.90;;;;;;4995868;28;20565;-85
2022/08/07 05:17:54;;;;;;;13.18;5.32;;;10.60;99.90;;;;;;5008278;28;20104;-85
2022/08/07 05:20:25;;;;;;;9.20;5.05;;;10.60;99.90;;;;;;5014699;28;20116;-85
2022/08/07 05:22:56;;;;;;;10.05;5.05;;;10.80;99.90;;;;;;5012145;28;20428;-85
2022/08/07 05:25:23;;;;;;;9.75;5.15;;;10.80;99.90;;;;;;5014855;28;20049;-85
2022/08/07 05:27:50;;;;;;;10.13;4.68;;;10.80;99.90;;;;;;5010539;28;20560;-85
2022/08/07 05:30:16;;;;;;;9.10;4.68;;;11.00;99.90;;;;;;5001858;28;20073;-85
2022/08/07 05:32:46;;;;;;;10.98;4.57;;;11.00;99.90;;;;;;5014925;28;20468;-85
2022/08/07 05:35:13;;;;;;;9.07;4.65;;;11.00;99.90;;;;;;5006826;28;20068;-85
2022/08/07 05:37:40;;;;;;;9.77;4.72;;;11.20;99.90;;;;;;5011617;28;20026;-85
2022/08/07 05:40:09;;;;;;;11.45;4.65;;;11.30;99.90;;;;;;5009747;28;20401;-85
2022/08/07 05:42:36;;;;;;;12.27;4.70;;;11.40;99.90;;;;;;5015684;28;20713;-85
2022/08/07 05:45:04;;;;;;;8.18;4.13;;;11.40;99.90;;;;;;5006694;28;20108;-85
2022/08/07 05:47:32;;;;;;;9.52;4.95;;;11.60;99.90;;;;;;5018434;28;20029;-85
2022/08/07 05:49:58;;;;;;;9.93;4.10;;;11.80;99.90;;;;;;5015692;28;20378;-85
2022/08/07 05:52:24;;;;;;;9.75;4.47;;;11.90;99.90;;;;;;5008860;28;20030;-85
2022/08/07 05:54:50;;;;;;;10.15;4.70;;;11.90;99.90;;;;;;5010448;28;20045;-85
2022/08/07 05:57:16;;;;;;;9.13;4.57;;;12.00;99.90;;;;;;5007606;28;20027;-85
2022/08/07 05:59:45;;;;;;;10.05;4.30;;;12.10;99.90;;;;;;5005589;28;20038;-85
2022/08/07 06:02:14;;;;;;;11.52;4.40;;;12.20;99.90;;;;;;5005597;28;20033;-84
2022/08/07 06:04:47;;;;;;;9.82;4.63;;;12.40;99.90;;;;;;5020490;28;20149;-83
2022/08/07 06:07:14;;;;;;;9.65;4.75;;;12.50;99.90;;;;;;5019728;28;20063;-83
2022/08/07 06:09:40;;;;;;;8.55;4.00;;;12.70;99.90;;;;;;5008524;28;20030;-83
2022/08/07 06:12:06;;;;;;;11.68;4.50;;;12.80;99.90;;;;;;5003586;28;20062;-83
2022/08/07 06:14:32;;;;;;;7.88;4.00;;;13.00;99.90;;;;;;5003689;28;20076;-84
2022/08/07 06:16:59;;;;;;;9.95;4.32;;;13.10;99.90;;;;;;5021621;28;20025;-84
2022/08/07 06:19:26;;;;;;;8.45;3.83;;;13.10;99.90;;;;;;5000590;28;20038;-83
2022/08/07 06:21:53;;;;;;;8.93;3.83;;;13.20;99.90;;;;;;5004039;28;20029;-83
2022/08/07 06:24:20;;;;;;;8.60;3.80;;;13.30;99.90;;;;;;5011832;28;20124;-83
2022/08/07 06:26:46;;;;;;;10.82;4.03;;;13.40;99.90;;;;;;5011528;28;20025;-83
2022/08/07 06:29:12;;;;;;;8.32;3.80;;;13.50;99.90;;;;;;5007879;28;20184;-83
2022/08/07 06:31:37;;;;;;;8.88;4.00;;;13.60;99.90;;;;;;5006028;28;20026;-83
2022/08/07 06:34:03;;;;;;;8.98;3.45;;;13.80;99.90;;;;;;5013137;28;20133;-84
2022/08/07 06:36:29;;;;;;;8.05;3.65;;;13.90;99.90;;;;;;5004711;28;20038;-84
2022/08/07 06:38:55;;;;;;;7.85;3.33;;;14.00;99.90;;;;;;5012044;28;20434;-83
2022/08/07 06:41:31;;;;;;;9.57;3.00;;;14.20;99.90;;;;;;5009001;28;20384;-83
2022/08/07 06:43:59;;;;;;;7.03;3.03;;;14.40;99.90;;;;;;5007281;28;20346;-83
2022/08/07 06:46:25;;;;;;;7.35;3.30;;;14.50;99.90;;;;;;4998926;28;20097;-83
2022/08/07 06:48:51;;;;;;;8.55;3.63;;;14.70;99.90;;;;;;5006704;28;20041;-83
2022/08/07 06:51:21;;;;;;;7.43;3.10;;;14.70;99.90;;;;;;5011229;28;20512;-83
2022/08/07 06:53:48;;;;;;;6.82;2.80;;;14.80;99.90;;;;;;5010280;28;20042;-83
2022/08/07 06:56:15;;;;;;;6.68;3.05;;;15.00;99.90;;;;;;5009885;28;20022;-84
2022/08/07 06:58:42;;;;;;;8.55;3.58;;;15.10;99.90;;;;;;5008640;28;20084;-84
2022/08/07 07:01:11;;;;;;;8.82;2.92;;;15.20;99.90;;;;;;5008547;28;20022;-84
2022/08/07 07:03:39;;;;;;;6.80;2.83;;;15.30;99.90;;;;;;5010936;28;20056;-83
2022/08/07 07:06:07;;;;;;;5.53;2.58;;;15.40;99.90;;;;;;5013804;28;20536;-83
2022/08/07 07:08:34;;;;;;;7.10;2.83;;;15.60;99.90;;;;;;5032883;28;20080;-83
2022/08/07 07:11:02;;;;;;;6.78;2.95;;;15.70;99.90;;;;;;5018173;28;20033;-83
2022/08/07 07:13:33;;;;;;;6.50;2.50;;;15.90;99.90;;;;;;5015980;28;20036;-84
2022/08/07 07:16:04;;;;;;;5.20;2.20;;;16.00;99.90;;;;;;5016227;28;20022;-84
2022/08/07 07:18:45;;;;;;;7.60;2.80;;;16.10;99.90;;;;;;5016639;28;20084;-84
2022/08/07 07:21:23;;;;;;;6.10;2.30;;;16.20;99.90;;;;;;5016075;28;20018;-84
2022/08/07 07:23:50;;;;;;;5.95;2.63;;;16.40;99.90;;;;;;5012528;28;20125;-84
2022/08/07 07:26:19;;;;;;;9.05;2.50;;;16.50;99.90;;;;;;5016199;28;20029;-84
2022/08/07 07:28:51;;;;;;;7.78;2.40;;;16.60;99.90;;;;;;5010368;28;20029;-84
2022/08/07 07:31:31;;;;;;;9.05;2.25;;;16.70;99.90;;;;;;5009683;28;20037;-84
2022/08/07 07:34:02;;;;;;;7.95;2.50;;;17.00;99.90;;;;;;5010740;28;20033;-84
2022/08/07 07:36:30;;;;;;;8.98;2.30;;;17.10;99.90;;;;;;5020586;28;20062;-84
2022/08/07 07:38:58;;;;;;;5.90;1.90;;;17.20;99.90;;;;;;5005480;28;20027;-84
2022/08/07 07:41:26;;;;;;;5.45;1.92;;;17.40;99.90;;;;;;5005221;28;20186;-84
2022/08/07 07:43:54;;;;;;;5.78;1.83;;;17.60;99.90;;;;;;5006894;28;20026;-84
2022/08/07 07:46:22;;;;;;;6.72;1.90;;;17.80;99.90;;;;;;5006556;28;20050;-84
2022/08/07 07:48:50;;;;;;;7.07;1.98;;;17.90;99.90;;;;;;5008375;28;20014;-84
2022/08/07 07:51:17;;;;;;;6.35;1.90;;;18.00;99.90;;;;;;5010879;28;20429;-84
2022/08/07 07:53:45;;;;;;;5.22;1.58;;;18.10;99.90;;;;;;5016213;28;20053;-83
2022/08/07 07:56:12;;;;;;;4.80;1.70;;;18.30;99.90;;;;;;5010630;28;20026;-85
2022/08/07 07:58:39;;;;;;;5.07;1.70;;;18.40;99.90;;;;;;5008375;28;20474;-84
2022/08/07 08:01:06;;;;;;;5.65;1.58;;;18.60;99.90;;;;;;5012103;28;20029;-84
2022/08/07 08:03:35;;;;;;;4.70;1.40;;;18.90;99.90;;;;;;5011815;28;20066;-84
2022/08/07 08:06:03;;;;;;;5.82;1.63;;;19.10;99.90;;;;;;5005958;28;20049;-84
2022/08/07 08:08:31;;;;;;;4.05;1.50;;;19.20;99.90;;;;;;5014169;28;20504;-84
2022/08/07 08:10:59;;;;;;;3.58;1.58;;;19.40;99.90;;;;;;5009292;28;20076;-84
2022/08/07 08:13:26;;;;;;;4.30;1.45;;;19.40;99.90;;;;;;5010087;28;20026;-84
2022/08/07 08:15:53;;;;;;;5.75;2.13;;;19.40;99.90;;;;;;5012364;28;20029;-84
2022/08/07 08:18:21;;;;;;;5.72;1.63;;;19.60;99.90;;;;;;5015029;28;20482;-84
2022/08/07 08:20:48;;;;;;;4.78;1.30;;;20.00;99.90;;;;;;5015945;28;20470;-84
2022/08/07 08:28:49;;;;;;;5.50;1.10;;;21.80;95.50;;;;;;5006783;28;20109;-84
2022/08/07 08:31:25;;;;;;;3.08;0.95;;;22.60;93.90;;;;;;5010868;28;20109;-84
2022/08/07 08:33:56;;;;;;;3.38;1.10;;;23.30;91.30;;;;;;5010410;28;20044;-84
2022/08/07 08:36:27;;;;;;;3.10;1.00;;;23.20;91.10;;;;;;5008334;28;20130;-84
2022/08/07 08:38:55;;;;;;;2.92;1.00;;;23.30;90.00;;;;;;5022611;28;20033;-84
2022/08/07 08:41:46;;;;;;;2.35;0.90;;;23.10;88.30;;;;;;5007201;28;20041;-84
2022/08/07 08:44:34;;;;;;;2.25;0.80;;;23.90;85.80;;;;;;5003241;28;20120;-84
2022/08/07 08:47:23;;;;;;;4.72;0.90;;;24.20;83.40;;;;;;5005597;28;20033;-84
2022/08/07 08:50:08;;;;;;;3.45;0.90;;;24.30;81.20;;;;;;5006036;28;20022;-84
2022/08/07 08:52:56;;;;;;;3.20;1.15;;;24.70;80.30;;;;;;5006093;28;20037;-85
2022/08/07 08:55:45;;;;;;;1.63;0.82;;;25.00;77.30;;;;;;5014176;28;20038;-85
2022/08/07 08:58:18;;;;;;;5.05;1.10;;;24.40;78.00;;;;;;5012623;28;20021;-85
2022/08/07 09:00:51;;;;;;;1.40;0.80;;;24.20;78.70;;;;;;5013848;28;19912;-85
2022/08/07 09:03:44;;;;;;;1.65;0.80;;;24.70;77.70;;;;;;5009160;28;20077;-85
2022/08/07 09:06:48;;;;;;;3.25;0.90;;;25.00;75.40;;;;;;5014288;28;20037;-86
2022/08/07 09:09:19;;;;;;;2.65;0.98;;;24.70;78.60;;;;;;5005790;28;20061;-86
2022/08/07 09:12:07;;;;;;;7.68;0.95;;;24.20;77.90;;;;;;5013150;28;20022;-86
2022/08/07 09:14:43;;;;;;;2.10;0.90;;;24.10;76.90;;;;;;4990762;28;20026;-84
2022/08/07 09:17:30;;;;;;;4.05;1.00;;;24.40;76.30;;;;;;5009078;28;20524;-85
2022/08/07 09:20:09;;;;;;;2.30;0.90;;;24.40;76.30;;;;;;5013353;28;20550;-85
2022/08/07 09:23:02;;;;;;;;;;;25.10;75.00;;;;;;5016208;28;20052;-85
2022/08/07 09:25:55;;;;;;;1.95;0.90;;;26.00;72.60;;;;;;5009236;28;19932;-85
2022/08/07 09:28:32;;;;;;;1.55;0.80;;;26.00;74.50;;;;;;5009521;28;20026;-85
2022/08/07 09:31:31;;;;;;;1.63;0.80;;;26.10;72.20;;;;;;5010387;28;20041;-85
2022/08/07 09:34:12;;;;;;;4.45;0.88;;;26.20;72.30;;;;;;5013162;28;20022;-85
2022/08/07 09:37:00;;;;;;;3.55;0.80;;;27.40;69.90;;;;;;5014843;28;20026;-84
2022/08/07 09:39:50;;;;;;;1.58;0.70;;;27.00;69.30;;;;;;5011815;28;20025;-84
2022/08/07 09:42:47;;;;;;;4.53;0.95;;;26.80;67.60;;;;;;5012178;28;20061;-85
2022/08/07 09:45:31;;;;;;;2.35;0.88;;;27.40;67.50;;;;;;5027867;28;20045;-85
2022/08/07 09:48:11;;;;;;;1.42;0.75;;;25.80;66.20;;;;;;5005329;28;20018;-85
2022/08/07 09:51:30;;;;;;;3.63;0.80;;;26.60;65.60;;;;;;5014074;28;20486;-86
2022/08/07 09:54:01;;;;;;;1.73;0.80;;;27.20;65.40;;;;;;5013768;28;20029;-85
2022/08/07 09:56:32;;;;;;;1.63;0.82;;;27.10;69.30;;;;;;5015322;28;20144;-85
2022/08/07 09:59:40;;;;;;;2.33;0.80;;;27.10;68.10;;;;;;5012064;28;20043;-86
2022/08/07 10:02:39;;;;;;;4.18;1.00;;;27.10;67.80;;;;;;5010487;28;20041;-85
2022/08/07 10:05:07;;;;;;;;;;;26.60;67.10;;;;;;5013026;28;20046;-85
2022/08/07 10:08:08;;;;;;;3.22;0.90;;;26.30;68.00;;;;;;5004324;28;19917;-85
2022/08/07 10:10:48;;;;;;;5.18;1.00;;;27.30;65.30;;;;;;4944853;28;20033;-86
2022/08/07 10:13:25;;;;;;;3.22;1.10;;;28.30;65.10;;;;;;5011390;28;20029;-86
2022/08/07 10:16:03;;;;;;;1.98;0.85;;;29.20;65.70;;;;;;5013752;28;20021;-85
2022/08/07 10:18:49;;;;;;;3.00;0.85;;;28.60;64.20;;;;;;5028507;28;20030;-85
2022/08/07 10:21:34;;;;;;;2.42;0.80;;;27.50;63.60;;;;;;5012060;28;20034;-85
2022/08/07 10:24:27;;;;;;;1.63;0.80;;;27.20;65.50;;;;;;5014922;28;20060;-86
2022/08/07 10:27:14;;;;;;;1.92;0.82;;;27.60;64.60;;;;;;5010733;28;20485;-85
2022/08/07 10:30:05;;;;;;;2.75;0.77;;;28.00;65.20;;;;;;5012550;28;20108;-85
2022/08/07 10:33:10;;;;;;;1.65;0.80;;;28.40;60.80;;;;;;5010195;28;20022;-85
2022/08/07 10:36:13;;;;;;;2.58;0.90;;;28.40;62.10;;;;;;5010865;28;20022;-85
2022/08/07 10:39:24;;;;;;;4.45;1.00;;;27.80;64.30;;;;;;5008372;28;20073;-85
2022/08/07 10:42:26;;;;;;;4.10;0.90;;;27.10;64.30;;;;;;4994314;28;20038;-85
2022/08/07 10:45:15;;;;;;;1.92;1.00;;;28.30;60.20;;;;;;5009948;28;20474;-85
2022/08/07 10:48:22;;;;;;;2.47;0.80;;;29.60;60.90;;;;;;5012309;28;20540;-86
2022/08/07 10:51:20;;;;;;;2.38;0.90;;;27.90;62.30;;;;;;5010235;28;20030;-85
2022/08/07 10:54:08;;;;;;;1.80;0.90;;;26.90;62.80;;;;;;5012693;28;20034;-85
2022/08/07 10:56:57;;;;;;;2.03;0.80;;;27.00;63.40;;;;;;5023748;28;20018;-85
2022/08/07 10:59:29;;;;;;;2.13;0.80;;;27.60;63.10;;;;;;5011445;28;20481;-85
2022/08/07 11:02:08;;;;;;;2.17;0.80;;;28.10;63.10;;;;;;5013457;28;20037;-85
2022/08/07 11:05:08;;;;;;;4.43;1.05;;;28.60;61.30;;;;;;5012326;28;20045;-86
2022/08/07 11:07:39;;;;;;;1.80;0.70;;;28.30;59.90;;;;;;5019614;28;20490;-85
2022/08/07 11:10:22;;;;;;;3.00;0.82;;;27.40;60.30;;;;;;5006124;28;20014;-85
2022/08/07 11:13:02;;;;;;;1.92;0.88;;;28.50;60.80;;;;;;5016111;28;20021;-83
2022/08/07 11:15:34;;;;;;;3.03;1.00;;;28.30;60.10;;;;;;5007391;28;20092;-85
2022/08/07 11:18:32;;;;;;;2.20;0.80;;;29.70;58.80;;;;;;5005585;28;20030;-85
2022/08/07 11:21:03;;;;;;;2.95;0.85;;;30.40;58.10;;;;;;5006699;28;20023;-85
2022/08/07 11:23:52;;;;;;;2.20;0.80;;;30.70;59.10;;;;;;5012392;28;20482;-85
2022/08/07 11:26:31;;;;;;;2.42;0.93;;;30.80;56.60;;;;;;5008368;28;20019;-85
2022/08/07 11:29:38;;;;;;;1.23;0.80;;;30.10;58.00;;;;;;5007405;28;20023;-85
2022/08/07 11:32:10;;;;;;;2.05;0.60;;;29.20;57.20;;;;;;4966265;28;20035;-85
2022/08/07 11:34:47;;;;;;;1.77;0.70;;;30.20;56.10;;;;;;5003792;28;20524;-85
2022/08/07 11:37:45;;;;;;;2.88;0.80;;;29.60;59.40;;;;;;5007945;28;20038;-85
2022/08/07 11:40:38;;;;;;;2.35;0.90;;;29.10;57.70;;;;;;5011875;28;20025;-85
2022/08/07 11:43:29;;;;;;;4.03;0.88;;;28.90;59.20;;;;;;5023806;28;20034;-83
2022/08/07 11:46:21;;;;;;;1.25;0.70;;;29.30;58.50;;;;;;5013004;28;20060;-83
2022/08/07 11:49:33;;;;;;;3.13;0.80;;;29.60;58.40;;;;;;5009488;28;20037;-84
2022/08/07 11:52:02;;;;;;;0.77;0.60;;;29.90;56.40;;;;;;5010358;28;20029;-84
2022/08/07 11:54:36;;;;;;;4.00;1.00;;;30.50;55.20;;;;;;5015855;28;20025;-83
2022/08/07 11:57:05;;;;;;;1.67;0.80;;;29.80;57.70;;;;;;5012503;28;20022;-84
2022/08/07 11:59:44;;;;;;;3.05;0.88;;;29.40;57.20;;;;;;5016355;28;20117;-84
2022/08/07 12:02:46;;;;;;;3.42;0.90;;;30.20;58.20;;;;;;5009964;28;20141;-85
2022/08/07 12:05:57;;;;;;;2.97;0.90;;;30.70;56.70;;;;;;5015682;28;20042;-85
2022/08/07 12:08:29;;;;;;;2.85;0.98;;;30.20;56.10;;;;;;5017837;28;20048;-85
2022/08/07 12:11:03;;;;;;;2.65;0.80;;;30.50;57.20;;;;;;5012572;28;20075;-86
2022/08/07 12:13:54;;;;;;;2.22;0.70;;;32.30;54.40;;;;;;5011298;28;20014;-85
2022/08/07 12:16:48;;;;;;;3.40;0.70;;;30.90;54.70;;;;;;5013817;28;20032;-85
2022/08/07 12:19:36;;;;;;;2.60;0.70;;;31.30;55.30;;;;;;5013408;28;20497;-85
2022/08/07 12:22:22;;;;;;;1.75;0.80;;;30.50;55.00;;;;;;5012302;28;20062;-85
2022/08/07 12:28:01;;;;;;;4.60;0.80;;;32.20;55.10;;;;;;5013095;28;20052;-85
2022/08/07 12:30:31;;;;;;;2.45;0.77;;;31.60;53.80;;;;;;5022521;28;20393;-85
2022/08/07 12:33:06;;;;;;;1.63;0.70;;;31.60;54.30;;;;;;5009290;28;20077;-85
2022/08/07 12:35:34;;;;;;;4.03;0.85;;;31.80;53.90;;;;;;5017022;28;20039;-85
2022/08/07 12:38:01;;;;;;;1.63;0.70;;;30.60;54.50;;;;;;5006678;28;20061;-85
2022/08/07 12:40:33;;;;;;;1.58;0.80;;;31.60;55.10;;;;;;5012741;28;20038;-85
2022/08/07 12:43:03;;;;;;;3.38;0.90;;;31.50;54.00;;;;;;5013336;28;20022;-85
2022/08/07 12:45:36;;;;;;;2.00;0.80;;;31.10;54.40;;;;;;5012160;28;20024;-86
2022/08/07 12:48:15;;;;;;;1.98;0.80;;;30.90;53.30;;;;;;5011089;28;20636;-86
2022/08/07 12:50:49;;;;;;;3.40;0.63;;;31.00;52.80;;;;;;5010918;28;20662;-86
2022/08/07 12:53:21;;;;;;;2.53;0.80;;;30.80;55.00;;;;;;5017384;28;20028;-85
2022/08/07 12:56:05;;;;;;;1.27;0.80;;;31.60;53.90;;;;;;5011662;28;20029;-86
2022/08/07 12:58:36;;;;;;;3.70;1.00;;;31.60;54.60;;;;;;5011958;28;20018;-86
2022/08/07 13:01:05;;;;;;;2.67;0.95;;;31.60;53.30;;;;;;5011111;28;20449;-86
2022/08/07 13:04:09;;;;;;;1.30;0.70;;;31.30;52.40;;;;;;5008914;28;20038;-86
2022/08/07 13:06:44;;;;;;;4.68;0.80;;;32.00;52.20;;;;;;5020120;28;20041;-85
2022/08/07 13:09:17;;;;;;;2.30;0.70;;;33.20;51.10;;;;;;5012676;28;20053;-86
2022/08/07 13:12:06;;;;;;;1.80;0.70;;;34.70;51.10;;;;;;5013574;28;20037;-86
2022/08/07 13:14:54;;;;;;;3.10;0.80;;;34.30;51.00;;;;;;5015146;28;20026;-85
2022/08/07 13:17:32;;;;;;;2.60;0.80;;;32.90;53.30;;;;;;5016085;28;20033;-86
2022/08/07 13:20:24;;;;;;;1.40;0.70;;;32.30;52.40;;;;;;5010012;28;20029;-85
2022/08/07 13:22:59;;;;;;;3.67;0.80;;;32.60;51.50;;;;;;5012058;28;20034;-86
2022/08/07 13:25:31;;;;;;;2.60;0.80;;;32.70;51.20;;;;;;5008268;28;20021;-85
2022/08/07 13:28:12;;;;;;;1.95;0.75;;;31.40;52.70;;;;;;5013479;28;20278;-86
2022/08/07 13:30:43;;;;;;;4.10;0.88;;;32.30;51.70;;;;;;5013738;28;20100;-85